Airport Name : Lismore

Other Name : Lismore

ICAO : YLIS

IATA : LSY

FAA :

Latitude : -28.830278

Longitude : 153.26

Country : Australia

Local Date and Time : 8/22/2018 3:46:00 PM

 

TAF (Terminal Aerodrome Forecast)

 

METAR (METeorological Aerodrome Report)

YLIS 220500Z AUTO 18007KT 9999 // NCD 23/M05 Q1012

YLIS 220400Z AUTO 27005KT 210V340 9999 // NCD 22/M06 Q1012

YLIS 220300Z AUTO 25009KT 240V300 9999 // NCD 22/M05 Q1012

YLIS 220200Z AUTO 31011KT 280V340 9999 // NCD 21/M05 Q1014